sensor_id;sensor_type;location;lat;lon;timestamp;P1;durP1;ratioP1;P2;durP2;ratioP2
34242;SDS011;20504;43.214;27.920;2022-07-29T07:40:57;4.90;;;3.80;;
34242;SDS011;20504;43.214;27.920;2022-07-29T07:44:07;5.32;;;4.15;;
34242;SDS011;20504;43.214;27.920;2022-07-29T07:47:12;6.22;;;3.40;;
34242;SDS011;20504;43.214;27.920;2022-07-29T08:08:06;7.47;;;2.85;;
34242;SDS011;20504;43.214;27.920;2022-07-29T08:14:20;7.07;;;3.25;;
34242;SDS011;20504;43.214;27.920;2022-07-29T08:17:07;6.22;;;3.83;;
34242;SDS011;20504;43.214;27.920;2022-07-29T08:27:41;9.23;;;3.45;;
34242;SDS011;20504;43.214;27.920;2022-07-29T08:30:10;4.78;;;3.33;;
34242;SDS011;20504;43.214;27.920;2022-07-29T08:32:37;3.78;;;2.95;;
34242;SDS011;20504;43.214;27.920;2022-07-29T08:35:06;8.57;;;2.78;;
34242;SDS011;20504;43.214;27.920;2022-07-29T08:41:26;6.03;;;3.15;;
34242;SDS011;20504;43.214;27.920;2022-07-29T08:43:57;8.50;;;3.28;;
34242;SDS011;20504;43.214;27.920;2022-07-29T08:46:28;5.75;;;3.35;;
34242;SDS011;20504;43.214;27.920;2022-07-29T08:52:09;7.47;;;3.00;;
34242;SDS011;20504;43.214;27.920;2022-07-29T08:57:19;4.97;;;3.00;;
34242;SDS011;20504;43.214;27.920;2022-07-29T09:00:03;5.63;;;3.03;;
34242;SDS011;20504;43.214;27.920;2022-07-29T09:02:44;10.00;;;3.65;;
34242;SDS011;20504;43.214;27.920;2022-07-29T09:10:39;5.97;;;3.00;;
34242;SDS011;20504;43.214;27.920;2022-07-29T09:13:07;6.90;;;3.05;;
34242;SDS011;20504;43.214;27.920;2022-07-29T09:19:10;9.30;;;4.00;;
34242;SDS011;20504;43.214;27.920;2022-07-29T09:21:51;5.97;;;2.90;;
34242;SDS011;20504;43.214;27.920;2022-07-29T09:24:36;5.10;;;3.10;;
34242;SDS011;20504;43.214;27.920;2022-07-29T09:29:47;10.27;;;3.78;;
34242;SDS011;20504;43.214;27.920;2022-07-29T09:32:53;5.60;;;3.45;;
34242;SDS011;20504;43.214;27.920;2022-07-29T09:35:24;7.18;;;3.90;;
34242;SDS011;20504;43.214;27.920;2022-07-29T09:38:14;12.00;;;3.55;;
34242;SDS011;20504;43.214;27.920;2022-07-29T09:40:55;9.02;;;3.90;;
34242;SDS011;20504;43.214;27.920;2022-07-29T09:43:25;10.02;;;3.70;;
34242;SDS011;20504;43.214;27.920;2022-07-29T09:48:21;9.77;;;3.50;;
34242;SDS011;20504;43.214;27.920;2022-07-29T09:50:51;3.35;;;3.05;;
34242;SDS011;20504;43.214;27.920;2022-07-29T09:55:57;7.25;;;3.80;;
34242;SDS011;20504;43.214;27.920;2022-07-29T09:58:44;6.78;;;3.50;;
34242;SDS011;20504;43.214;27.920;2022-07-29T10:01:36;5.82;;;3.13;;
34242;SDS011;20504;43.214;27.920;2022-07-29T10:04:16;6.35;;;3.22;;
34242;SDS011;20504;43.214;27.920;2022-07-29T10:07:14;10.27;;;3.75;;
34242;SDS011;20504;43.214;27.920;2022-07-29T10:09:56;6.05;;;3.20;;
34242;SDS011;20504;43.214;27.920;2022-07-29T10:12:24;7.22;;;3.38;;
34242;SDS011;20504;43.214;27.920;2022-07-29T10:15:03;8.40;;;3.42;;
34242;SDS011;20504;43.214;27.920;2022-07-29T10:17:29;5.78;;;3.70;;
34242;SDS011;20504;43.214;27.920;2022-07-29T10:20:27;8.25;;;3.45;;
34242;SDS011;20504;43.214;27.920;2022-07-29T10:23:04;3.60;;;2.80;;
34242;SDS011;20504;43.214;27.920;2022-07-29T10:25:34;5.30;;;2.40;;
34242;SDS011;20504;43.214;27.920;2022-07-29T10:33:51;4.82;;;3.33;;
34242;SDS011;20504;43.214;27.920;2022-07-29T10:40:10;4.47;;;3.20;;
34242;SDS011;20504;43.214;27.920;2022-07-29T10:43:25;9.23;;;3.42;;
34242;SDS011;20504;43.214;27.920;2022-07-29T10:46:17;6.47;;;3.53;;
34242;SDS011;20504;43.214;27.920;2022-07-29T10:49:09;8.73;;;2.75;;
34242;SDS011;20504;43.214;27.920;2022-07-29T10:52:04;3.40;;;2.85;;
34242;SDS011;20504;43.214;27.920;2022-07-29T10:57:26;6.20;;;3.55;;
34242;SDS011;20504;43.214;27.920;2022-07-29T11:02:54;7.60;;;3.08;;
34242;SDS011;20504;43.214;27.920;2022-07-29T11:05:21;4.15;;;3.00;;
34242;SDS011;20504;43.214;27.920;2022-07-29T11:10:39;9.85;;;3.15;;
34242;SDS011;20504;43.214;27.920;2022-07-29T11:13:05;5.45;;;2.88;;
34242;SDS011;20504;43.214;27.920;2022-07-29T11:15:51;6.55;;;2.90;;
34242;SDS011;20504;43.214;27.920;2022-07-29T11:18:22;3.45;;;2.63;;
34242;SDS011;20504;43.214;27.920;2022-07-29T11:20:49;5.88;;;2.90;;
34242;SDS011;20504;43.214;27.920;2022-07-29T11:23:19;6.68;;;3.42;;
34242;SDS011;20504;43.214;27.920;2022-07-29T11:26:13;6.10;;;3.00;;
34242;SDS011;20504;43.214;27.920;2022-07-29T11:29:04;6.30;;;2.92;;
34242;SDS011;20504;43.214;27.920;2022-07-29T11:31:42;10.45;;;3.70;;
34242;SDS011;20504;43.214;27.920;2022-07-29T11:34:28;5.47;;;3.15;;
34242;SDS011;20504;43.214;27.920;2022-07-29T11:39:36;4.35;;;2.85;;
34242;SDS011;20504;43.214;27.920;2022-07-29T11:47:32;6.67;;;3.27;;
34242;SDS011;20504;43.214;27.920;2022-07-29T11:49:59;7.57;;;3.25;;
34242;SDS011;20504;43.214;27.920;2022-07-29T11:52:49;6.47;;;3.20;;
34242;SDS011;20504;43.214;27.920;2022-07-29T11:55:22;8.55;;;3.00;;
34242;SDS011;20504;43.214;27.920;2022-07-29T11:57:59;4.32;;;2.78;;
34242;SDS011;20504;43.214;27.920;2022-07-29T12:03:38;5.18;;;3.53;;
34242;SDS011;20504;43.214;27.920;2022-07-29T12:06:41;11.25;;;3.30;;
34242;SDS011;20504;43.214;27.920;2022-07-29T12:09:07;4.25;;;3.20;;
34242;SDS011;20504;43.214;27.920;2022-07-29T12:11:33;3.70;;;3.05;;
34242;SDS011;20504;43.214;27.920;2022-07-29T12:14:00;8.98;;;2.90;;
34242;SDS011;20504;43.214;27.920;2022-07-29T12:16:36;3.65;;;2.70;;
34242;SDS011;20504;43.214;27.920;2022-07-29T12:19:03;6.10;;;3.05;;
34242;SDS011;20504;43.214;27.920;2022-07-29T12:24:10;6.82;;;3.10;;
34242;SDS011;20504;43.214;27.920;2022-07-29T12:26:36;8.52;;;3.20;;
34242;SDS011;20504;43.214;27.920;2022-07-29T12:29:15;6.57;;;2.80;;
34242;SDS011;20504;43.214;27.920;2022-07-29T12:31:42;6.78;;;3.50;;
34242;SDS011;20504;43.214;27.920;2022-07-29T12:34:08;5.93;;;3.20;;
34242;SDS011;20504;43.214;27.920;2022-07-29T12:36:35;7.70;;;3.13;;
34242;SDS011;20504;43.214;27.920;2022-07-29T12:39:01;7.45;;;3.28;;
34242;SDS011;20504;43.214;27.920;2022-07-29T12:41:28;5.47;;;3.20;;
34242;SDS011;20504;43.214;27.920;2022-07-29T12:43:54;7.25;;;3.10;;
34242;SDS011;20504;43.214;27.920;2022-07-29T12:46:19;7.07;;;3.28;;
34242;SDS011;20504;43.214;27.920;2022-07-29T12:48:50;6.72;;;2.85;;
34242;SDS011;20504;43.214;27.920;2022-07-29T12:51:27;5.38;;;3.10;;
34242;SDS011;20504;43.214;27.920;2022-07-29T12:56:39;10.93;;;3.08;;
34242;SDS011;20504;43.214;27.920;2022-07-29T12:59:21;8.60;;;2.90;;
34242;SDS011;20504;43.214;27.920;2022-07-29T13:01:48;9.18;;;2.80;;
34242;SDS011;20504;43.214;27.920;2022-07-29T13:04:30;5.75;;;3.28;;
34242;SDS011;20504;43.214;27.920;2022-07-29T13:07:06;7.43;;;3.00;;
34242;SDS011;20504;43.214;27.920;2022-07-29T13:09:50;6.13;;;3.05;;
34242;SDS011;20504;43.214;27.920;2022-07-29T13:12:16;9.63;;;3.55;;
34242;SDS011;20504;43.214;27.920;2022-07-29T13:14:42;6.00;;;2.72;;
34242;SDS011;20504;43.214;27.920;2022-07-29T13:17:10;4.53;;;2.75;;
34242;SDS011;20504;43.214;27.920;2022-07-29T13:19:49;3.58;;;2.80;;
34242;SDS011;20504;43.214;27.920;2022-07-29T13:22:19;5.00;;;2.72;;
34242;SDS011;20504;43.214;27.920;2022-07-29T13:27:26;4.00;;;2.53;;
34242;SDS011;20504;43.214;27.920;2022-07-29T13:29:54;5.45;;;2.92;;
34242;SDS011;20504;43.214;27.920;2022-07-29T13:32:25;5.22;;;2.72;;
34242;SDS011;20504;43.214;27.920;2022-07-29T13:34:52;5.57;;;2.80;;
34242;SDS011;20504;43.214;27.920;2022-07-29T13:37:18;4.72;;;3.03;;
34242;SDS011;20504;43.214;27.920;2022-07-29T13:39:44;5.22;;;2.67;;
34242;SDS011;20504;43.214;27.920;2022-07-29T13:42:10;4.65;;;3.28;;
34242;SDS011;20504;43.214;27.920;2022-07-29T13:44:39;7.25;;;3.08;;
34242;SDS011;20504;43.214;27.920;2022-07-29T13:47:06;5.72;;;3.13;;
34242;SDS011;20504;43.214;27.920;2022-07-29T13:49:32;9.35;;;3.28;;
34242;SDS011;20504;43.214;27.920;2022-07-29T13:51:58;5.18;;;2.80;;
34242;SDS011;20504;43.214;27.920;2022-07-29T13:54:25;8.82;;;3.33;;
34242;SDS011;20504;43.214;27.920;2022-07-29T13:56:51;7.00;;;3.47;;
34242;SDS011;20504;43.214;27.920;2022-07-29T13:59:17;7.07;;;3.15;;
34242;SDS011;20504;43.214;27.920;2022-07-29T14:01:44;6.85;;;3.20;;
34242;SDS011;20504;43.214;27.920;2022-07-29T14:04:10;10.18;;;3.92;;
34242;SDS011;20504;43.214;27.920;2022-07-29T14:06:36;8.48;;;3.13;;
34242;SDS011;20504;43.214;27.920;2022-07-29T14:09:02;6.57;;;3.72;;
34242;SDS011;20504;43.214;27.920;2022-07-29T14:11:49;6.35;;;3.38;;
34242;SDS011;20504;43.214;27.920;2022-07-29T14:14:18;5.75;;;3.22;;
34242;SDS011;20504;43.214;27.920;2022-07-29T14:16:50;7.78;;;3.95;;
34242;SDS011;20504;43.214;27.920;2022-07-29T14:19:15;8.23;;;3.85;;
34242;SDS011;20504;43.214;27.920;2022-07-29T14:21:43;6.25;;;3.97;;
34242;SDS011;20504;43.214;27.920;2022-07-29T14:24:09;6.60;;;3.60;;
34242;SDS011;20504;43.214;27.920;2022-07-29T14:26:35;8.27;;;3.70;;
34242;SDS011;20504;43.214;27.920;2022-07-29T14:29:01;6.32;;;3.85;;
34242;SDS011;20504;43.214;27.920;2022-07-29T14:31:27;6.50;;;3.58;;
34242;SDS011;20504;43.214;27.920;2022-07-29T14:33:53;7.65;;;4.25;;
34242;SDS011;20504;43.214;27.920;2022-07-29T14:36:19;7.28;;;3.97;;
34242;SDS011;20504;43.214;27.920;2022-07-29T14:38:45;6.07;;;3.70;;
34242;SDS011;20504;43.214;27.920;2022-07-29T14:41:10;8.15;;;4.00;;
34242;SDS011;20504;43.214;27.920;2022-07-29T14:43:36;8.90;;;3.95;;
34242;SDS011;20504;43.214;27.920;2022-07-29T14:46:02;4.25;;;3.50;;
34242;SDS011;20504;43.214;27.920;2022-07-29T14:48:27;8.52;;;3.92;;
34242;SDS011;20504;43.214;27.920;2022-07-29T14:50:55;10.27;;;4.97;;
34242;SDS011;20504;43.214;27.920;2022-07-29T14:53:22;10.60;;;4.32;;
34242;SDS011;20504;43.214;27.920;2022-07-29T14:55:51;5.97;;;4.10;;
34242;SDS011;20504;43.214;27.920;2022-07-29T14:58:16;8.32;;;4.10;;
34242;SDS011;20504;43.214;27.920;2022-07-29T15:00:42;6.90;;;3.78;;
34242;SDS011;20504;43.214;27.920;2022-07-29T15:03:07;8.90;;;3.92;;
34242;SDS011;20504;43.214;27.920;2022-07-29T15:05:36;7.13;;;3.65;;
34242;SDS011;20504;43.214;27.920;2022-07-29T15:08:02;5.80;;;3.95;;
34242;SDS011;20504;43.214;27.920;2022-07-29T15:10:28;7.95;;;4.28;;
34242;SDS011;20504;43.214;27.920;2022-07-29T15:12:54;6.82;;;3.88;;
34242;SDS011;20504;43.214;27.920;2022-07-29T15:15:20;6.28;;;4.20;;
34242;SDS011;20504;43.214;27.920;2022-07-29T15:17:46;9.10;;;3.97;;
34242;SDS011;20504;43.214;27.920;2022-07-29T15:20:12;6.95;;;4.32;;
34242;SDS011;20504;43.214;27.920;2022-07-29T15:22:37;19.13;;;5.38;;
34242;SDS011;20504;43.214;27.920;2022-07-29T15:25:04;7.10;;;4.07;;
34242;SDS011;20504;43.214;27.920;2022-07-29T15:27:30;6.53;;;4.30;;
34242;SDS011;20504;43.214;27.920;2022-07-29T15:36:06;8.32;;;3.90;;
34242;SDS011;20504;43.214;27.920;2022-07-29T15:38:33;7.97;;;3.80;;
34242;SDS011;20504;43.214;27.920;2022-07-29T15:46:27;10.00;;;4.35;;
34242;SDS011;20504;43.214;27.920;2022-07-29T15:49:21;13.93;;;4.53;;
34242;SDS011;20504;43.214;27.920;2022-07-29T17:05:11;10.45;;;7.05;;
34242;SDS011;20504;43.214;27.920;2022-07-29T17:28:40;14.52;;;6.20;;
34242;SDS011;20504;43.214;27.920;2022-07-29T17:34:10;13.57;;;6.55;;
34242;SDS011;20504;43.214;27.920;2022-07-29T17:50:13;12.65;;;7.40;;
34242;SDS011;20504;43.214;27.920;2022-07-29T17:53:45;15.60;;;6.90;;
34242;SDS011;20504;43.214;27.920;2022-07-29T18:30:08;9.60;;;8.32;;
34242;SDS011;20504;43.214;27.920;2022-07-29T18:38:36;10.90;;;6.95;;
34242;SDS011;20504;43.214;27.920;2022-07-29T18:44:13;13.60;;;7.45;;
34242;SDS011;20504;43.214;27.920;2022-07-29T18:51:16;10.23;;;7.38;;
34242;SDS011;20504;43.214;27.920;2022-07-29T18:54:15;15.93;;;7.60;;
34242;SDS011;20504;43.214;27.920;2022-07-29T20:21:27;14.13;;;10.40;;
34242;SDS011;20504;43.214;27.920;2022-07-29T20:39:40;12.00;;;10.10;;
34242;SDS011;20504;43.214;27.920;2022-07-29T20:42:31;17.02;;;10.18;;
34242;SDS011;20504;43.214;27.920;2022-07-29T20:45:08;13.15;;;10.75;;
34242;SDS011;20504;43.214;27.920;2022-07-29T20:47:36;16.50;;;10.95;;
34242;SDS011;20504;43.214;27.920;2022-07-29T20:50:02;19.03;;;11.27;;
34242;SDS011;20504;43.214;27.920;2022-07-29T20:52:28;16.95;;;12.23;;
34242;SDS011;20504;43.214;27.920;2022-07-29T21:00:50;16.30;;;11.93;;
34242;SDS011;20504;43.214;27.920;2022-07-29T21:07:06;16.42;;;14.73;;
34242;SDS011;20504;43.214;27.920;2022-07-29T21:09:42;20.20;;;14.73;;
34242;SDS011;20504;43.214;27.920;2022-07-29T21:12:16;18.27;;;13.85;;
34242;SDS011;20504;43.214;27.920;2022-07-29T21:20:42;24.23;;;16.85;;
34242;SDS011;20504;43.214;27.920;2022-07-29T21:23:18;24.90;;;17.13;;
34242;SDS011;20504;43.214;27.920;2022-07-29T21:26:09;24.80;;;18.90;;
34242;SDS011;20504;43.214;27.920;2022-07-29T21:28:46;27.33;;;18.48;;
34242;SDS011;20504;43.214;27.920;2022-07-29T21:31:26;25.70;;;19.13;;
34242;SDS011;20504;43.214;27.920;2022-07-29T21:34:05;24.88;;;19.17;;
34242;SDS011;20504;43.214;27.920;2022-07-29T21:44:45;24.50;;;19.60;;
34242;SDS011;20504;43.214;27.920;2022-07-29T21:47:52;23.83;;;19.65;;
34242;SDS011;20504;43.214;27.920;2022-07-29T21:50:57;27.50;;;19.55;;
34242;SDS011;20504;43.214;27.920;2022-07-29T21:53:59;23.70;;;18.75;;
34242;SDS011;20504;43.214;27.920;2022-07-29T21:59:28;25.95;;;19.58;;
34242;SDS011;20504;43.214;27.920;2022-07-29T22:02:30;26.35;;;18.75;;
34242;SDS011;20504;43.214;27.920;2022-07-29T22:04:59;20.98;;;18.88;;
34242;SDS011;20504;43.214;27.920;2022-07-29T22:07:35;24.60;;;17.98;;
34242;SDS011;20504;43.214;27.920;2022-07-29T22:10:44;25.02;;;18.85;;
34242;SDS011;20504;43.214;27.920;2022-07-29T22:15:35;20.70;;;17.70;;
34242;SDS011;20504;43.214;27.920;2022-07-29T22:22:35;20.38;;;17.80;;
34242;SDS011;20504;43.214;27.920;2022-07-29T22:28:56;23.80;;;18.15;;
34242;SDS011;20504;43.214;27.920;2022-07-29T22:31:42;21.15;;;17.90;;
34242;SDS011;20504;43.214;27.920;2022-07-29T22:37:45;21.75;;;18.10;;
34242;SDS011;20504;43.214;27.920;2022-07-29T22:40:30;23.33;;;18.98;;
